Time;durP1;ratioP1;P1;durP2;ratioP2;P2;SDS_P1;SDS_P2;PMS_P1;PMS_P2;Temp;Humidity;BMP_temperature;BMP_pressure;BME280_temperature;BME280_humidity;BME280_pressure;Samples;Min_cycle;Max_cycle;Signal;HPM_P1;HPM_P2
2021/06/15 00:00:17;;;;;;;4.78;2.22;;;22.20;72.40;;;;;;5135466;27;20051;-45
2021/06/15 00:02:45;;;;;;;4.07;2.72;;;22.20;72.50;;;;;;5106951;27;20126;-45
2021/06/15 00:05:14;;;;;;;5.20;1.88;;;22.20;72.70;;;;;;5134217;27;20050;-45
2021/06/15 00:07:42;;;;;;;6.30;2.97;;;22.20;72.70;;;;;;5126740;27;20127;-45
2021/06/15 00:10:15;;;;;;;5.15;1.98;;;22.10;72.70;;;;;;5114653;28;20075;-46
2021/06/15 00:12:42;;;;;;;10.45;2.47;;;22.10;72.80;;;;;;5125411;27;20040;-45
2021/06/15 00:15:12;;;;;;;4.30;1.63;;;22.10;72.90;;;;;;5097445;27;20138;-45
2021/06/15 00:17:39;;;;;;;3.80;1.60;;;22.10;72.90;;;;;;5108722;27;20150;-47
2021/06/15 00:20:08;;;;;;;5.03;2.28;;;22.10;73.10;;;;;;5114311;28;20039;-45
2021/06/15 00:22:35;;;;;;;3.58;2.13;;;22.10;73.20;;;;;;5124064;27;20058;-45
2021/06/15 00:25:05;;;;;;;2.90;2.08;;;22.10;73.40;;;;;;5135054;27;20059;-45
2021/06/15 00:27:33;;;;;;;6.43;2.70;;;22.00;73.40;;;;;;5086300;28;20382;-45
2021/06/15 00:30:01;;;;;;;14.27;4.28;;;22.00;73.60;;;;;;5115799;28;20109;-45
2021/06/15 00:32:28;;;;;;;4.53;2.03;;;22.00;73.70;;;;;;5122141;27;20042;-46
2021/06/15 00:34:56;;;;;;;4.90;2.17;;;22.00;73.80;;;;;;5134903;27;20046;-45
2021/06/15 00:37:24;;;;;;;5.15;2.55;;;22.00;73.80;;;;;;5123114;27;20507;-44
2021/06/15 00:39:51;;;;;;;7.47;3.20;;;22.00;73.90;;;;;;5136074;27;20120;-45
2021/06/15 00:42:19;;;;;;;6.90;2.25;;;22.00;73.70;;;;;;5102238;27;20114;-45
2021/06/15 00:44:47;;;;;;;3.97;2.22;;;21.90;73.50;;;;;;5136137;27;20137;-45
2021/06/15 00:47:15;;;;;;;8.73;2.60;;;21.90;73.40;;;;;;5121869;27;20520;-45
2021/06/15 00:49:44;;;;;;;7.05;1.70;;;21.90;73.30;;;;;;5117638;27;20504;-45
2021/06/15 00:52:12;;;;;;;4.13;2.15;;;21.90;73.10;;;;;;5121981;27;20075;-44
2021/06/15 00:54:43;;;;;;;6.88;2.15;;;21.90;72.90;;;;;;5094093;28;20064;-45
2021/06/15 00:57:16;;;;;;;4.28;2.60;;;21.90;72.90;;;;;;5112761;27;20490;-45
2021/06/15 00:59:45;;;;;;;7.82;2.05;;;21.90;72.90;;;;;;5076775;28;20409;-45
2021/06/15 01:02:13;;;;;;;3.55;2.00;;;21.80;72.70;;;;;;5096580;28;20521;-44
2021/06/15 01:04:41;;;;;;;5.88;2.35;;;21.80;72.80;;;;;;5092819;28;20044;-44
2021/06/15 01:07:25;;;;;;;6.43;1.90;;;21.80;72.90;;;;;;5098638;28;20040;-54
2021/06/15 01:10:20;;;;;;;7.75;2.08;;;21.80;73.00;;;;;;5093571;28;20052;-47
2021/06/15 01:13:04;;;;;;;4.10;2.10;;;21.80;73.20;;;;;;5087181;27;20047;-44
2021/06/15 01:16:00;;;;;;;6.15;3.03;;;21.70;73.30;;;;;;5131128;27;20093;-44
2021/06/15 01:18:31;;;;;;;5.07;1.85;;;21.60;73.40;;;;;;5122673;27;20051;-45
2021/06/15 01:21:08;;;;;;;3.70;1.73;;;21.60;73.40;;;;;;5082564;27;20150;-44
2021/06/15 01:23:48;;;;;;;7.40;2.28;;;21.60;73.30;;;;;;5133349;27;20039;-46
2021/06/15 01:26:56;;;;;;;5.88;2.58;;;21.60;73.30;;;;;;5130311;27;20100;-45
2021/06/15 01:29:31;;;;;;;6.43;2.80;;;21.60;73.20;;;;;;5131627;27;20047;-45
2021/06/15 01:32:10;;;;;;;8.20;2.17;;;21.60;73.20;;;;;;5122998;27;20048;-44
2021/06/15 01:34:43;;;;;;;5.93;1.60;;;21.60;73.60;;;;;;5110339;28;20101;-45
2021/06/15 01:37:30;;;;;;;5.25;1.65;;;21.60;73.90;;;;;;5117019;27;20051;-44
2021/06/15 01:40:13;;;;;;;6.28;2.63;;;21.60;74.00;;;;;;5093105;28;20044;-44
2021/06/15 01:43:05;;;;;;;7.40;1.92;;;21.50;73.90;;;;;;5110199;27;20501;-45
2021/06/15 01:45:40;;;;;;;7.28;1.67;;;21.60;73.80;;;;;;5113534;27;20091;-45
2021/06/15 01:48:13;;;;;;;7.28;2.38;;;21.50;73.70;;;;;;5118964;27;20051;-44
2021/06/15 01:50:45;;;;;;;4.38;2.20;;;21.50;73.80;;;;;;5097861;27;20503;-44
2021/06/15 01:53:18;;;;;;;5.40;1.83;;;21.50;73.90;;;;;;5107804;27;20366;-45
2021/06/15 01:55:52;;;;;;;2.67;1.70;;;21.50;74.00;;;;;;5110722;27;20040;-45
2021/06/15 01:58:25;;;;;;;4.82;2.45;;;21.50;73.70;;;;;;5108103;27;20079;-45
2021/06/15 02:00:55;;;;;;;2.85;1.75;;;21.40;73.40;;;;;;5113127;28;20051;-44
2021/06/15 02:03:26;;;;;;;4.57;1.60;;;21.40;73.70;;;;;;5123946;27;20047;-45
2021/06/15 02:05:57;;;;;;;8.18;1.80;;;21.40;72.80;;;;;;5129613;27;20043;-45
2021/06/15 02:08:43;;;;;;;4.10;1.58;;;21.40;72.80;;;;;;5107036;27;20134;-44
2021/06/15 02:11:31;;;;;;;3.33;2.17;;;21.40;72.70;;;;;;5126897;27;20133;-44
2021/06/15 02:14:23;;;;;;;4.82;2.20;;;21.40;72.80;;;;;;5097450;28;20050;-44
2021/06/15 02:17:14;;;;;;;3.50;2.08;;;21.40;72.90;;;;;;5121140;27;20051;-53
2021/06/15 02:20:00;;;;;;;7.75;1.92;;;21.40;72.90;;;;;;5092512;28;20052;-46
2021/06/15 02:22:31;;;;;;;2.63;1.60;;;21.40;73.00;;;;;;5085199;28;20044;-47
2021/06/15 02:25:03;;;;;;;4.10;1.83;;;21.40;73.10;;;;;;5116169;28;20054;-45
2021/06/15 02:27:34;;;;;;;10.30;2.42;;;21.30;73.00;;;;;;5124360;28;20059;-45
2021/06/15 02:30:04;;;;;;;4.03;1.67;;;21.40;73.10;;;;;;5095770;28;20048;-44
2021/06/15 02:32:44;;;;;;;5.53;2.72;;;21.40;73.20;;;;;;5123819;28;20409;-47
2021/06/15 02:35:14;;;;;;;4.75;1.67;;;21.30;73.10;;;;;;5095365;28;20059;-45
2021/06/15 02:38:07;;;;;;;3.92;1.65;;;21.30;73.10;;;;;;5119599;28;20056;-44
2021/06/15 02:40:37;;;;;;;5.72;1.85;;;21.30;73.20;;;;;;5063559;28;20047;-49
2021/06/15 02:43:07;;;;;;;4.10;1.77;;;21.40;73.20;;;;;;5100259;28;20062;-47
2021/06/15 02:45:36;;;;;;;4.05;1.85;;;21.30;73.30;;;;;;5096518;28;20051;-45
2021/06/15 02:48:07;;;;;;;3.20;1.70;;;21.30;73.20;;;;;;5113998;28;20178;-48
2021/06/15 02:50:46;;;;;;;3.03;2.00;;;21.20;73.00;;;;;;5084256;28;20091;-45
2021/06/15 02:53:43;;;;;;;4.13;2.20;;;21.20;72.80;;;;;;5123382;28;20400;-46
2021/06/15 02:56:19;;;;;;;;;;;21.20;72.70;;;;;;5112443;28;20043;-45
2021/06/15 02:58:49;;;;;;;4.60;2.35;;;21.20;72.90;;;;;;5109173;28;19926;-47
2021/06/15 03:01:19;;;;;;;3.80;2.40;;;21.20;72.90;;;;;;5110991;28;20043;-44
2021/06/15 03:03:55;;;;;;;3.83;1.63;;;21.20;73.10;;;;;;5093983;28;20051;-45
2021/06/15 03:06:23;;;;;;;5.07;2.10;;;21.10;73.10;;;;;;5109949;28;20047;-45
2021/06/15 03:08:51;;;;;;;5.13;2.22;;;21.10;72.70;;;;;;5108997;28;20047;-45
2021/06/15 03:11:22;;;;;;;3.55;2.10;;;21.10;72.30;;;;;;5093384;28;20043;-46
2021/06/15 03:14:02;;;;;;;3.53;1.77;;;21.10;71.70;;;;;;5125899;28;20035;-45
2021/06/15 03:16:32;;;;;;;4.55;1.45;;;21.10;71.00;;;;;;5126274;28;20055;-45
2021/06/15 03:19:16;;;;;;;4.88;1.80;;;21.10;70.60;;;;;;5127381;28;20051;-44
2021/06/15 03:21:49;;;;;;;6.78;1.60;;;21.10;70.30;;;;;;5124973;27;20039;-46
2021/06/15 03:24:22;;;;;;;5.45;1.77;;;21.10;70.40;;;;;;5129872;28;20051;-44
2021/06/15 03:27:04;;;;;;;2.70;1.63;;;21.00;70.70;;;;;;5122982;28;20044;-45
2021/06/15 03:29:38;;;;;;;4.40;1.60;;;21.00;70.70;;;;;;5118170;27;20062;-46
2021/06/15 03:32:09;;;;;;;4.15;1.80;;;21.10;70.80;;;;;;5124513;27;20044;-46
2021/06/15 03:34:58;;;;;;;3.22;1.23;;;21.10;70.90;;;;;;5136117;27;20061;-46
2021/06/15 03:37:29;;;;;;;3.03;1.45;;;21.00;70.90;;;;;;5123095;27;20057;-44
2021/06/15 03:40:00;;;;;;;2.13;1.50;;;21.10;71.10;;;;;;5136320;27;20047;-45
2021/06/15 03:42:37;;;;;;;5.18;1.40;;;21.10;71.10;;;;;;5104574;27;20400;-46
2021/06/15 03:45:08;;;;;;;5.15;1.40;;;21.20;71.20;;;;;;5118976;27;20071;-44
2021/06/15 03:47:39;;;;;;;2.20;1.40;;;21.20;71.30;;;;;;5125040;27;20073;-44
2021/06/15 03:50:08;;;;;;;3.38;1.48;;;21.20;71.20;;;;;;5135502;27;20134;-47
2021/06/15 03:52:39;;;;;;;4.07;1.52;;;21.30;71.00;;;;;;5123624;27;20101;-45
2021/06/15 03:55:10;;;;;;;2.65;1.50;;;21.30;70.90;;;;;;5135134;27;20069;-46
2021/06/15 03:57:42;;;;;;;5.15;2.22;;;21.40;70.80;;;;;;5124232;27;20047;-45
2021/06/15 04:00:13;;;;;;;5.63;2.05;;;21.50;71.00;;;;;;5135109;27;20043;-45
2021/06/15 04:02:43;;;;;;;14.32;2.10;;;21.50;71.30;;;;;;5105911;28;20098;-45
2021/06/15 04:05:15;;;;;;;2.85;1.80;;;21.50;71.30;;;;;;5061679;27;20048;-44
2021/06/15 04:07:45;;;;;;;4.85;1.92;;;21.50;71.20;;;;;;5126464;27;20055;-45
2021/06/15 04:10:13;;;;;;;3.92;1.52;;;21.70;71.30;;;;;;5116106;27;20056;-44
2021/06/15 04:12:42;;;;;;;3.13;1.30;;;21.60;71.10;;;;;;5104850;28;20056;-45
2021/06/15 04:15:11;;;;;;;2.63;2.13;;;21.70;71.00;;;;;;5094688;27;20509;-51
2021/06/15 04:17:48;;;;;;;5.35;1.98;;;21.80;71.20;;;;;;5071190;28;20485;-44
2021/06/15 04:20:29;;;;;;;8.07;1.85;;;21.90;71.10;;;;;;5115852;27;20082;-46
2021/06/15 04:22:59;;;;;;;5.13;1.95;;;21.90;70.60;;;;;;5124374;27;20112;-44
2021/06/15 04:25:30;;;;;;;5.72;1.80;;;22.00;70.60;;;;;;5116008;27;20051;-45
2021/06/15 04:28:02;;;;;;;5.57;1.88;;;21.90;70.20;;;;;;5108415;27;20046;-44
2021/06/15 04:30:34;;;;;;;4.55;2.33;;;22.00;70.30;;;;;;5132505;27;20144;-44
2021/06/15 04:33:06;;;;;;;5.97;2.05;;;22.10;69.90;;;;;;5125379;27;20412;-45
2021/06/15 04:35:46;;;;;;;6.38;2.50;;;22.10;70.00;;;;;;5133072;27;20047;-45
2021/06/15 04:38:46;;;;;;;6.15;2.10;;;22.10;69.70;;;;;;5121527;27;20059;-44
2021/06/15 04:41:34;;;;;;;3.70;1.75;;;22.20;69.20;;;;;;5102219;27;20555;-45
2021/06/15 04:44:04;;;;;;;3.22;2.00;;;22.30;68.70;;;;;;5112848;27;20104;-44
2021/06/15 04:46:46;;;;;;;4.35;1.67;;;22.50;68.40;;;;;;5128078;27;20516;-45
2021/06/15 04:49:29;;;;;;;2.88;1.73;;;22.60;68.00;;;;;;5113939;27;20051;-45
2021/06/15 04:52:01;;;;;;;4.38;1.58;;;22.70;68.20;;;;;;5124073;27;20047;-44
2021/06/15 04:54:36;;;;;;;7.13;2.38;;;22.70;68.00;;;;;;5116143;27;20047;-45
2021/06/15 04:57:08;;;;;;;4.05;1.77;;;22.70;68.00;;;;;;5124617;27;20134;-45
2021/06/15 04:59:39;;;;;;;3.17;1.65;;;22.70;67.00;;;;;;5100978;27;20107;-44
2021/06/15 05:02:08;;;;;;;4.95;1.73;;;22.90;66.70;;;;;;5124166;27;20436;-44
2021/06/15 05:04:37;;;;;;;4.80;2.00;;;23.00;65.90;;;;;;5135277;27;20078;-47
2021/06/15 05:07:05;;;;;;;3.50;1.40;;;22.90;65.80;;;;;;5123731;27;20184;-45
2021/06/15 05:09:35;;;;;;;2.90;1.35;;;23.10;65.10;;;;;;5099699;27;20458;-45
2021/06/15 05:12:05;;;;;;;3.38;1.27;;;23.20;64.20;;;;;;5102515;28;20036;-46
2021/06/15 05:14:36;;;;;;;2.60;1.48;;;23.20;63.00;;;;;;5132383;27;20138;-46
2021/06/15 05:17:08;;;;;;;1.90;1.30;;;23.30;62.80;;;;;;5123052;27;20134;-47
2021/06/15 05:19:39;;;;;;;4.13;1.55;;;23.30;62.60;;;;;;5116584;27;20047;-47
2021/06/15 05:22:10;;;;;;;5.18;1.95;;;23.40;63.20;;;;;;5123702;27;20044;-47
2021/06/15 05:24:47;;;;;;;3.33;1.50;;;23.40;63.50;;;;;;5133859;27;20134;-46
2021/06/15 05:27:17;;;;;;;3.70;1.45;;;23.50;63.50;;;;;;5104080;28;20142;-47
2021/06/15 05:29:45;;;;;;;5.93;1.70;;;23.50;63.00;;;;;;5133741;27;20066;-46
2021/06/15 05:32:13;;;;;;;6.88;1.60;;;23.30;62.70;;;;;;5121132;27;20135;-46
2021/06/15 05:34:41;;;;;;;3.08;1.25;;;23.40;62.90;;;;;;5093088;28;20397;-46
2021/06/15 05:37:10;;;;;;;4.18;1.20;;;23.30;62.20;;;;;;5081639;28;20401;-46
2021/06/15 05:39:38;;;;;;;2.55;1.40;;;23.50;62.40;;;;;;5116565;27;20050;-46
2021/06/15 05:42:07;;;;;;;3.42;1.30;;;23.50;63.30;;;;;;5122980;27;20493;-47
2021/06/15 05:44:35;;;;;;;2.22;1.55;;;23.70;63.60;;;;;;5115751;27;20486;-45
2021/06/15 05:47:03;;;;;;;2.95;2.10;;;23.70;62.70;;;;;;5122250;27;20519;-47
2021/06/15 05:49:31;;;;;;;1.88;1.40;;;23.80;62.50;;;;;;5098343;27;20077;-47
2021/06/15 05:52:12;;;;;;;2.75;1.70;;;23.90;62.20;;;;;;5085121;28;20424;-46
2021/06/15 05:54:40;;;;;;;2.67;1.35;;;24.10;62.70;;;;;;5093587;28;20535;-46
2021/06/15 05:57:08;;;;;;;5.38;1.85;;;24.30;62.00;;;;;;5111693;27;20448;-47
2021/06/15 05:59:36;;;;;;;5.10;1.60;;;24.40;62.00;;;;;;5115722;27;20411;-47
2021/06/15 06:02:04;;;;;;;2.92;1.58;;;24.40;61.00;;;;;;5105164;28;20043;-46
2021/06/15 06:10:12;;;;;;;2.95;2.53;;;24.90;62.30;;;;;;5095456;28;20530;-46
2021/06/15 06:12:40;;;;;;;4.78;1.52;;;25.00;63.60;;;;;;5120633;27;20062;-45
2021/06/15 06:15:11;;;;;;;3.97;1.40;;;24.90;63.20;;;;;;5059129;28;20050;-46
2021/06/15 06:17:40;;;;;;;5.25;1.40;;;24.90;61.90;;;;;;5086467;28;20048;-45
2021/06/15 06:20:15;;;;;;;2.88;1.23;;;25.00;60.90;;;;;;5093997;28;20048;-46
2021/06/15 06:22:44;;;;;;;2.20;1.30;;;25.00;60.40;;;;;;5123703;27;20048;-44
2021/06/15 06:25:13;;;;;;;2.33;1.27;;;25.10;60.40;;;;;;5112258;28;20093;-45
2021/06/15 06:27:42;;;;;;;9.65;2.33;;;25.20;60.90;;;;;;5119500;28;20044;-47
2021/06/15 06:30:10;;;;;;;2.80;1.83;;;25.20;59.80;;;;;;5092309;28;20052;-50
2021/06/15 06:32:38;;;;;;;2.97;1.40;;;25.30;58.20;;;;;;5121483;28;20177;-46
2021/06/15 06:35:07;;;;;;;3.15;1.58;;;25.20;58.20;;;;;;5132869;28;20054;-48
2021/06/15 06:37:35;;;;;;;5.45;1.67;;;25.20;58.70;;;;;;5123849;28;20066;-45
2021/06/15 06:40:06;;;;;;;2.70;1.75;;;25.00;58.80;;;;;;5112481;28;20075;-44
2021/06/15 06:42:34;;;;;;;3.58;1.50;;;25.10;58.80;;;;;;5124324;28;20116;-45
2021/06/15 06:45:03;;;;;;;2.42;1.23;;;25.20;58.50;;;;;;5095837;28;20048;-44
2021/06/15 06:47:31;;;;;;;3.42;2.05;;;25.20;57.80;;;;;;5102970;28;20051;-45
2021/06/15 06:49:59;;;;;;;2.50;1.67;;;25.20;58.50;;;;;;5099182;28;20519;-44
2021/06/15 06:52:28;;;;;;;2.70;1.40;;;24.90;58.80;;;;;;5119822;28;20048;-44
2021/06/15 06:54:56;;;;;;;4.28;1.42;;;25.00;59.20;;;;;;5132207;28;20039;-44
2021/06/15 06:57:23;;;;;;;5.55;1.63;;;25.20;59.40;;;;;;5100751;28;20052;-46
2021/06/15 06:59:51;;;;;;;6.20;1.92;;;25.20;58.80;;;;;;5132863;28;20047;-44
2021/06/15 07:02:19;;;;;;;2.92;1.63;;;25.20;59.10;;;;;;5100817;27;20050;-44
2021/06/15 07:04:46;;;;;;;5.00;1.67;;;25.30;59.60;;;;;;5136553;27;20047;-44
2021/06/15 07:07:14;;;;;;;4.03;1.80;;;25.30;59.80;;;;;;5123434;27;20058;-45
2021/06/15 07:09:42;;;;;;;2.97;1.25;;;25.20;59.50;;;;;;5137823;27;20097;-44
2021/06/15 07:12:10;;;;;;;3.25;2.35;;;25.40;59.90;;;;;;5124339;27;20120;-45
2021/06/15 07:14:37;;;;;;;4.15;2.72;;;25.40;60.20;;;;;;5136418;27;20050;-44
2021/06/15 07:17:05;;;;;;;4.22;2.70;;;25.60;60.30;;;;;;5125084;27;20485;-47
2021/06/15 07:19:33;;;;;;;3.47;1.73;;;25.70;59.80;;;;;;5135464;27;20130;-45
2021/06/15 07:22:01;;;;;;;3.55;1.98;;;25.60;60.00;;;;;;5125607;27;20044;-45
2021/06/15 07:24:28;;;;;;;5.40;1.63;;;25.60;60.50;;;;;;5134934;27;20039;-45
2021/06/15 07:26:56;;;;;;;2.70;1.65;;;25.60;59.80;;;;;;5125954;27;20047;-45
2021/06/15 07:29:24;;;;;;;4.45;2.15;;;25.40;59.80;;;;;;5117066;27;20050;-46
2021/06/15 07:31:52;;;;;;;2.33;1.42;;;25.50;60.30;;;;;;5127931;27;20044;-45
2021/06/15 07:34:21;;;;;;;3.97;1.60;;;25.60;59.60;;;;;;5133705;27;20069;-44
2021/06/15 07:36:49;;;;;;;4.75;2.10;;;25.90;59.40;;;;;;5127166;27;20467;-45
2021/06/15 07:39:17;;;;;;;5.55;2.60;;;26.00;59.80;;;;;;5115521;27;20043;-45
2021/06/15 07:41:45;;;;;;;4.95;1.70;;;26.20;59.70;;;;;;5107057;28;20380;-44
2021/06/15 07:44:14;;;;;;;2.22;1.45;;;26.30;59.50;;;;;;5115291;27;20054;-45
2021/06/15 07:46:42;;;;;;;4.05;1.58;;;26.30;59.80;;;;;;5127774;27;20047;-45
2021/06/15 07:49:10;;;;;;;3.17;1.45;;;26.40;59.60;;;;;;5131666;27;20035;-51
2021/06/15 07:51:40;;;;;;;4.10;1.67;;;26.50;58.60;;;;;;5129142;27;20047;-46
2021/06/15 07:54:15;;;;;;;3.95;1.58;;;26.20;59.00;;;;;;5131694;27;20050;-45
2021/06/15 07:56:43;;;;;;;3.45;1.63;;;26.10;58.30;;;;;;5127222;27;20047;-45
2021/06/15 07:59:11;;;;;;;6.03;1.50;;;25.90;59.70;;;;;;5131366;27;20078;-45
2021/06/15 08:01:38;;;;;;;3.05;1.80;;;25.70;59.00;;;;;;5110651;28;20051;-44
2021/06/15 08:04:07;;;;;;;3.53;1.95;;;25.80;56.90;;;;;;5130931;27;20047;-45
2021/06/15 08:06:35;;;;;;;3.30;1.58;;;26.00;58.00;;;;;;5128502;27;20062;-46
2021/06/15 08:09:03;;;;;;;6.70;1.60;;;26.10;57.80;;;;;;5130059;27;20122;-46
2021/06/15 08:11:31;;;;;;;3.33;1.70;;;25.90;59.60;;;;;;5128341;27;20408;-45
2021/06/15 08:13:59;;;;;;;4.18;1.73;;;25.90;60.60;;;;;;5130246;27;20120;-44
2021/06/15 08:16:27;;;;;;;7.72;2.15;;;25.90;61.20;;;;;;5128713;27;20698;-48
2021/06/15 08:18:55;;;;;;;4.38;2.28;;;25.90;56.90;;;;;;5128611;27;20054;-44
2021/06/15 08:21:22;;;;;;;18.25;2.08;;;26.00;57.30;;;;;;5130530;27;20051;-45
2021/06/15 08:23:50;;;;;;;5.85;1.65;;;25.90;56.60;;;;;;5127841;27;20420;-45
2021/06/15 08:26:28;;;;;;;3.60;1.90;;;26.10;57.50;;;;;;5128713;27;20165;-47
2021/06/15 08:28:56;;;;;;;2.60;1.42;;;26.30;56.90;;;;;;5128523;27;20173;-45
2021/06/15 08:31:23;;;;;;;3.60;1.80;;;26.40;55.60;;;;;;5130483;27;20051;-45
2021/06/15 08:33:51;;;;;;;4.47;1.50;;;26.40;54.00;;;;;;5127975;27;20076;-46
2021/06/15 08:36:19;;;;;;;5.72;1.75;;;26.40;53.60;;;;;;5130838;27;20400;-45
2021/06/15 08:38:47;;;;;;;7.85;2.25;;;26.50;53.90;;;;;;5127347;27;20047;-44
2021/06/15 08:41:19;;;;;;;2.97;1.92;;;26.70;54.80;;;;;;5113150;27;20495;-44
2021/06/15 08:43:48;;;;;;;3.92;2.00;;;26.80;53.90;;;;;;5128225;27;20088;-45
2021/06/15 08:46:16;;;;;;;2.90;1.90;;;26.80;54.10;;;;;;5129953;27;20065;-45
2021/06/15 08:48:44;;;;;;;4.78;2.30;;;26.60;54.70;;;;;;5126370;27;20069;-44
2021/06/15 08:51:11;;;;;;;2.53;1.95;;;26.40;55.50;;;;;;5131497;27;20472;-45
2021/06/15 08:53:39;;;;;;;3.20;1.85;;;26.50;55.10;;;;;;5125460;27;20499;-45
2021/06/15 08:56:15;;;;;;;3.80;2.50;;;26.40;55.40;;;;;;5130561;27;20496;-45
2021/06/15 08:58:43;;;;;;;;;;;26.30;54.60;;;;;;5119169;27;20146;-45
2021/06/15 09:01:12;;;;;;;2.65;2.08;;;26.20;55.10;;;;;;5131017;27;20368;-45
2021/06/15 09:03:41;;;;;;;4.32;2.33;;;26.30;55.30;;;;;;5125054;27;20142;-45
2021/06/15 09:06:09;;;;;;;3.45;1.85;;;26.30;54.80;;;;;;5112908;27;20396;-48
2021/06/15 09:08:56;;;;;;;3.20;2.30;;;26.40;54.90;;;;;;5116842;27;20051;-46
2021/06/15 09:11:25;;;;;;;2.20;1.67;;;26.60;54.80;;;;;;5127609;27;20060;-45
2021/06/15 09:13:54;;;;;;;6.68;1.70;;;26.60;54.30;;;;;;5126369;27;20054;-45
2021/06/15 09:16:25;;;;;;;2.33;1.60;;;26.60;52.70;;;;;;5110676;27;20377;-45
2021/06/15 09:18:59;;;;;;;4.25;1.70;;;26.80;53.80;;;;;;5109650;27;20051;-45
2021/06/15 09:21:30;;;;;;;2.05;1.63;;;26.80;54.30;;;;;;5109897;27;20055;-48
2021/06/15 09:24:23;;;;;;;7.22;2.03;;;26.90;52.90;;;;;;5127045;27;20058;-45
2021/06/15 09:26:55;;;;;;;1.65;1.30;;;26.70;52.70;;;;;;5123048;27;20481;-45
2021/06/15 09:29:48;;;;;;;2.85;1.88;;;26.80;53.90;;;;;;5130112;27;20047;-45
2021/06/15 09:32:20;;;;;;;2.50;1.65;;;26.80;53.20;;;;;;5121427;27;20055;-45
2021/06/15 09:34:52;;;;;;;2.45;1.40;;;26.70;53.00;;;;;;5115660;27;20051;-46
2021/06/15 09:37:36;;;;;;;3.60;1.73;;;26.70;53.20;;;;;;5099935;27;20066;-45
2021/06/15 09:40:35;;;;;;;2.20;1.45;;;26.70;53.60;;;;;;5132657;27;20511;-44
2021/06/15 09:43:09;;;;;;;2.67;1.50;;;26.70;53.80;;;;;;5111307;27;20130;-46
2021/06/15 09:45:44;;;;;;;5.03;1.52;;;26.70;53.40;;;;;;5113890;27;20051;-46
2021/06/15 09:48:24;;;;;;;3.43;1.53;;;26.80;54.70;;;;;;5117915;27;20126;-47
2021/06/15 09:50:59;;;;;;;3.05;1.10;;;26.80;54.10;;;;;;5096291;27;20054;-45
2021/06/15 09:53:37;;;;;;;2.08;1.50;;;26.70;53.80;;;;;;5105677;27;20400;-44
2021/06/15 09:56:09;;;;;;;4.35;1.58;;;26.90;54.70;;;;;;5130015;27;20047;-44
2021/06/15 09:58:45;;;;;;;3.15;1.95;;;27.00;54.90;;;;;;5116296;27;20055;-45
2021/06/15 10:01:33;;;;;;;3.40;2.00;;;27.00;55.00;;;;;;5127291;27;20116;-45
2021/06/15 10:04:15;;;;;;;3.28;1.30;;;27.10;55.10;;;;;;5109853;27;20107;-45
2021/06/15 10:06:46;;;;;;;2.70;1.42;;;26.90;53.20;;;;;;5103553;28;20133;-47
2021/06/15 10:09:23;;;;;;;3.83;1.90;;;26.80;54.00;;;;;;5124357;27;20051;-45
2021/06/15 10:11:57;;;;;;;1.95;1.60;;;26.50;54.00;;;;;;5121958;27;20040;-46
2021/06/15 10:14:26;;;;;;;2.83;1.30;;;26.40;54.20;;;;;;5095951;28;20082;-46
2021/06/15 10:16:55;;;;;;;4.68;1.70;;;26.30;54.60;;;;;;5121912;27;20481;-45
2021/06/15 10:19:24;;;;;;;2.42;1.70;;;26.40;54.20;;;;;;5095810;28;20047;-45
2021/06/15 10:21:53;;;;;;;1.90;1.10;;;26.50;53.60;;;;;;5102113;28;20152;-46
2021/06/15 10:24:23;;;;;;;7.10;1.50;;;26.50;52.80;;;;;;5127891;28;20047;-46
2021/06/15 10:27:00;;;;;;;6.05;2.05;;;26.40;53.70;;;;;;5122256;27;20060;-45
2021/06/15 10:29:28;;;;;;;2.08;1.40;;;26.40;53.90;;;;;;5129897;28;20051;-46
2021/06/15 10:31:58;;;;;;;3.65;1.50;;;26.60;54.30;;;;;;5101746;28;20099;-47
2021/06/15 10:35:01;;;;;;;1.85;1.50;;;26.70;55.20;;;;;;5127781;28;20095;-45
2021/06/15 10:37:35;;;;;;;2.00;1.50;;;26.90;54.20;;;;;;5103315;27;20130;-46
2021/06/15 10:40:17;;;;;;;4.57;1.80;;;27.10;54.00;;;;;;5119067;27;20087;-47
2021/06/15 10:43:12;;;;;;;3.15;1.65;;;26.90;53.40;;;;;;5105953;28;20055;-46
2021/06/15 10:45:45;;;;;;;3.00;1.65;;;26.60;53.80;;;;;;5101561;27;20413;-45
2021/06/15 10:48:15;;;;;;;2.75;1.80;;;26.60;55.50;;;;;;5126951;27;20059;-45
2021/06/15 10:50:52;;;;;;;3.58;1.80;;;26.70;55.90;;;;;;5115222;27;20047;-45
2021/06/15 10:53:41;;;;;;;2.10;1.33;;;26.90;54.60;;;;;;5126560;27;20055;-45
2021/06/15 10:56:11;;;;;;;2.65;1.65;;;26.90;55.30;;;;;;5131731;27;20054;-47
2021/06/15 10:58:39;;;;;;;3.63;1.90;;;27.00;55.40;;;;;;5086320;28;20052;-45
2021/06/15 11:01:26;;;;;;;2.50;1.63;;;27.00;55.60;;;;;;5107795;27;20043;-46
2021/06/15 11:03:59;;;;;;;2.40;1.65;;;26.80;55.40;;;;;;5092050;28;20453;-46
2021/06/15 11:06:27;;;;;;;2.75;1.58;;;26.60;54.70;;;;;;5120265;27;20137;-46
2021/06/15 11:09:06;;;;;;;2.60;1.63;;;26.60;54.70;;;;;;5130229;27;20047;-44
2021/06/15 11:11:35;;;;;;;2.70;1.90;;;26.70;54.90;;;;;;5128177;27;20044;-45
2021/06/15 11:14:15;;;;;;;2.25;1.67;;;26.80;55.10;;;;;;5096213;27;20047;-45
2021/06/15 11:16:46;;;;;;;2.30;1.50;;;26.70;54.20;;;;;;5127172;27;20079;-46
2021/06/15 11:19:14;;;;;;;4.00;1.92;;;26.80;54.60;;;;;;5114235;27;20070;-45
2021/06/15 11:21:51;;;;;;;3.85;2.28;;;26.80;54.40;;;;;;5127074;27;20047;-45
2021/06/15 11:24:26;;;;;;;2.58;1.67;;;26.70;54.70;;;;;;5116262;27;20055;-45
2021/06/15 11:27:23;;;;;;;3.13;1.65;;;26.80;53.80;;;;;;5125202;27;20048;-48
2021/06/15 11:29:56;;;;;;;5.88;2.00;;;26.70;53.00;;;;;;5087672;28;20059;-45
2021/06/15 11:32:34;;;;;;;2.97;1.90;;;26.40;54.70;;;;;;5092370;27;20086;-46
2021/06/15 11:35:02;;;;;;;2.42;1.60;;;26.30;54.00;;;;;;5101240;28;20135;-45
2021/06/15 11:37:46;;;;;;;3.30;2.10;;;26.10;54.30;;;;;;5122169;27;20047;-45
2021/06/15 11:40:29;;;;;;;4.22;1.70;;;26.20;55.00;;;;;;5117593;27;20070;-46
2021/06/15 11:42:57;;;;;;;3.25;1.50;;;26.30;53.90;;;;;;5092189;27;20365;-46
2021/06/15 11:45:31;;;;;;;1.98;1.50;;;26.30;54.80;;;;;;5133567;27;20075;-45
2021/06/15 11:48:17;;;;;;;2.65;2.00;;;26.50;55.00;;;;;;5126436;27;20146;-45
2021/06/15 11:50:48;;;;;;;2.60;2.08;;;26.60;54.50;;;;;;5128842;27;20126;-45
2021/06/15 11:53:20;;;;;;;3.22;2.35;;;26.50;54.50;;;;;;5123552;27;20047;-46
2021/06/15 11:55:51;;;;;;;2.40;1.80;;;26.60;55.50;;;;;;5128072;27;20051;-45
2021/06/15 11:58:28;;;;;;;3.38;2.60;;;26.60;55.10;;;;;;5105549;27;20964;-45
2021/06/15 12:01:07;;;;;;;3.58;2.40;;;26.50;54.80;;;;;;5104778;27;20520;-45
2021/06/15 12:03:38;;;;;;;3.97;2.30;;;26.40;55.60;;;;;;5123664;27;20488;-46
2021/06/15 12:06:07;;;;;;;5.13;3.25;;;26.50;55.10;;;;;;5114225;27;20430;-45
2021/06/15 12:08:38;;;;;;;3.75;2.40;;;26.50;54.30;;;;;;5109035;27;20100;-45
2021/06/15 12:11:10;;;;;;;4.38;2.60;;;26.60;54.70;;;;;;5114781;27;20544;-46
2021/06/15 12:13:39;;;;;;;4.95;2.55;;;26.50;54.30;;;;;;5119002;27;20066;-46
2021/06/15 12:16:14;;;;;;;3.17;2.45;;;26.50;54.60;;;;;;5111689;27;20397;-47
2021/06/15 12:18:50;;;;;;;7.88;3.40;;;26.30;54.60;;;;;;5122362;27;20060;-45
2021/06/15 12:21:24;;;;;;;4.85;3.22;;;26.40;56.00;;;;;;5121985;27;20523;-45
2021/06/15 12:23:55;;;;;;;3.95;2.85;;;26.40;55.30;;;;;;5123372;27;20043;-45
2021/06/15 12:26:32;;;;;;;5.03;3.17;;;26.50;55.20;;;;;;5118954;27;20058;-45
2021/06/15 12:29:06;;;;;;;6.95;3.00;;;26.50;54.90;;;;;;5123066;27;20060;-45
2021/06/15 12:31:41;;;;;;;3.50;2.67;;;26.50;54.70;;;;;;5119192;27;20382;-45
2021/06/15 12:34:11;;;;;;;4.22;3.20;;;26.50;54.60;;;;;;5126032;27;20043;-44
2021/06/15 12:36:46;;;;;;;5.05;2.47;;;26.50;54.70;;;;;;5098935;28;20063;-45
2021/06/15 12:39:24;;;;;;;3.75;2.50;;;26.20;54.80;;;;;;5110159;27;20051;-45
2021/06/15 12:42:01;;;;;;;2.67;2.13;;;26.20;55.00;;;;;;5125052;27;20047;-45
2021/06/15 12:44:35;;;;;;;3.63;2.85;;;26.30;55.40;;;;;;5133043;27;20100;-45
2021/06/15 12:47:12;;;;;;;4.05;2.42;;;26.30;55.20;;;;;;5129668;27;20055;-44
2021/06/15 12:49:54;;;;;;;3.17;2.35;;;26.40;55.10;;;;;;5077112;28;20097;-45
2021/06/15 12:52:32;;;;;;;3.63;2.65;;;26.50;55.70;;;;;;5116162;27;20055;-45
2021/06/15 12:55:14;;;;;;;5.40;2.67;;;26.50;55.70;;;;;;5113941;28;20063;-45
2021/06/15 12:57:58;;;;;;;3.17;2.38;;;26.50;55.40;;;;;;5122536;27;20059;-46
2021/06/15 13:00:26;;;;;;;3.40;2.47;;;26.30;54.60;;;;;;5132741;27;20170;-45
2021/06/15 13:03:08;;;;;;;3.55;2.50;;;26.40;55.30;;;;;;5103530;28;20051;-45
2021/06/15 13:05:37;;;;;;;3.20;2.35;;;26.30;55.50;;;;;;5099665;27;20081;-45
2021/06/15 13:08:05;;;;;;;4.15;2.47;;;26.20;55.80;;;;;;5122317;27;20058;-45
2021/06/15 13:10:37;;;;;;;4.53;2.60;;;26.30;55.50;;;;;;5097448;27;20050;-45
2021/06/15 13:13:15;;;;;;;2.80;2.03;;;26.20;56.20;;;;;;5098028;28;20059;-47
2021/06/15 13:15:43;;;;;;;4.72;2.78;;;26.40;56.30;;;;;;5082692;27;20047;-47
2021/06/15 13:18:11;;;;;;;3.38;2.30;;;26.40;56.00;;;;;;5122258;27;20050;-45
2021/06/15 13:20:39;;;;;;;2.47;1.90;;;26.40;54.70;;;;;;5097090;28;20084;-46
2021/06/15 13:23:20;;;;;;;5.70;2.60;;;26.40;55.00;;;;;;5107716;27;20193;-46